createdAt,value
2023-02-07T00:01:14.879Z,2004.04
2023-02-07T00:04:39.255Z,1919.76
2023-02-07T00:08:00.107Z,1958.36
2023-02-07T00:11:37.114Z,2160.66
2023-02-07T00:14:57.768Z,2080.22
2023-02-07T00:18:18.480Z,2183.29
2023-02-07T00:21:39.452Z,2025.26
2023-02-07T00:25:09.603Z,1853.26
2023-02-07T00:28:33.130Z,1944.63
2023-02-07T00:31:56.974Z,1733.40
2023-02-07T00:35:19.197Z,1311.33
2023-02-07T00:38:40.165Z,1808.66
2023-02-07T00:42:08.081Z,1889.30
2023-02-07T00:45:40.586Z,1621.96
2023-02-07T00:49:07.494Z,1620.98
2023-02-07T00:52:28.181Z,1729.92
2023-02-07T00:55:48.880Z,1732.82
2023-02-07T00:59:10.440Z,1726.89
2023-02-07T01:02:33.774Z,1723.29
2023-02-07T01:05:54.690Z,1690.15
2023-02-07T01:09:29.177Z,1710.21
2023-02-07T01:12:55.685Z,1525.09
2023-02-07T01:16:28.397Z,1440.35
2023-02-07T01:19:52.078Z,1379.10
2023-02-07T01:23:15.622Z,1399.25
2023-02-07T01:26:45.646Z,1641.67
2023-02-07T01:30:11.881Z,1666.38
2023-02-07T01:33:32.655Z,1734.34
2023-02-07T01:36:56.139Z,1652.38
2023-02-07T01:40:17.283Z,1520.62
2023-02-07T01:43:39.240Z,1526.75
2023-02-07T01:47:00.758Z,1433.65
2023-02-07T01:50:32.104Z,1458.62
2023-02-07T01:54:15.481Z,1455.57
2023-02-07T01:57:36.590Z,1421.74
2023-02-07T02:00:58.440Z,1441.30
2023-02-07T02:04:19.088Z,1443.45
2023-02-07T02:07:42.964Z,1494.97
2023-02-07T02:11:47.891Z,1578.42
2023-02-07T02:15:38.125Z,1665.33
2023-02-07T02:19:44.476Z,1708.66
2023-02-07T02:23:39.608Z,1643.16
2023-02-07T02:27:18.922Z,1624.86
2023-02-07T02:31:16.712Z,1615.03
2023-02-07T02:34:58.217Z,1628.40
2023-02-07T02:38:33.958Z,1669.03
2023-02-07T02:42:10.485Z,1689.12
2023-02-07T02:45:42.270Z,1665.13
2023-02-07T02:49:20.945Z,1545.52
2023-02-07T02:52:50.659Z,1253.74
2023-02-07T02:56:32.500Z,1063.30
2023-02-07T03:00:06.781Z,1024.50
2023-02-07T03:04:24.436Z,1041.20
2023-02-07T03:07:58.151Z,1268.39
2023-02-07T03:11:17.232Z,1204.50
2023-02-07T03:14:37.278Z,1231.83
2023-02-07T03:17:57.512Z,1197.85
2023-02-07T03:21:14.489Z,1228.48
2023-02-07T03:24:32.578Z,1220.81
2023-02-07T03:27:43.503Z,1085.83
2023-02-07T03:30:57.781Z,987.50
2023-02-07T03:34:14.520Z,857.44
2023-02-07T03:37:30.908Z,923.63
2023-02-07T03:40:47.845Z,1058.60
2023-02-07T03:43:57.305Z,1159.38
2023-02-07T03:47:03.449Z,1237.00
2023-02-07T03:50:11.004Z,1223.32
2023-02-07T03:53:17.164Z,1249.74
2023-02-07T03:56:26.554Z,1317.88
2023-02-07T03:59:34.312Z,1433.08
2023-02-07T04:02:41.042Z,1417.16
2023-02-07T04:05:49.800Z,1371.11
2023-02-07T04:08:56.803Z,1358.10
2023-02-07T04:12:07.875Z,1203.38
2023-02-07T04:15:16.313Z,1106.43
2023-02-07T04:18:22.420Z,1162.19
2023-02-07T04:21:32.405Z,1119.38
2023-02-07T04:24:38.285Z,1129.89
2023-02-07T04:27:47.837Z,1095.03
2023-02-07T04:30:54.594Z,1150.99
2023-02-07T04:34:04.927Z,1122.85
2023-02-07T04:37:11.867Z,1202.58
2023-02-07T04:40:19.263Z,1265.61
2023-02-07T04:43:28.189Z,1350.04
2023-02-07T04:46:41.548Z,1285.70
2023-02-07T04:49:47.567Z,1043.49
2023-02-07T04:52:57.797Z,928.41
2023-02-07T04:56:06.326Z,961.42
2023-02-07T04:59:15.680Z,976.96
2023-02-07T05:02:21.521Z,994.97
2023-02-07T05:05:28.746Z,999.26
2023-02-07T05:08:34.762Z,973.31
2023-02-07T05:11:41.452Z,971.08
2023-02-07T05:14:50.009Z,969.27
2023-02-07T05:17:57.280Z,955.24
2023-02-07T05:21:07.836Z,953.49
2023-02-07T05:24:14.800Z,958.65
2023-02-07T05:27:20.699Z,923.66
2023-02-07T05:30:30.506Z,1007.39
2023-02-07T05:33:36.191Z,1617.42
2023-02-07T05:36:43.528Z,1577.85
2023-02-07T05:39:49.556Z,1574.37
2023-02-07T05:42:57.338Z,1693.61
2023-02-07T05:46:06.167Z,1568.33
2023-02-07T05:49:16.573Z,1565.66
2023-02-07T05:52:22.558Z,1514.64
2023-02-07T05:55:29.557Z,1660.39
2023-02-07T05:58:35.541Z,1649.62
2023-02-07T06:01:43.803Z,1574.18
2023-02-07T06:05:04.802Z,1414.93
2023-02-07T06:08:25.616Z,1424.04
2023-02-07T06:11:33.184Z,1487.48
2023-02-07T06:14:39.569Z,1684.34
2023-02-07T06:17:49.004Z,1551.29
2023-02-07T06:20:55.419Z,1482.35
2023-02-07T06:24:02.243Z,1591.30
2023-02-07T06:27:12.693Z,1712.89
2023-02-07T06:30:19.605Z,1831.20
2023-02-07T06:33:28.285Z,1868.99
2023-02-07T06:36:35.246Z,1737.71
2023-02-07T06:39:41.373Z,1643.76
2023-02-07T06:42:53.212Z,1715.04
2023-02-07T06:45:59.890Z,1846.79
2023-02-07T06:49:11.512Z,1895.48
2023-02-07T06:52:17.799Z,1904.38
2023-02-07T06:55:24.790Z,1944.72
2023-02-07T06:58:37.080Z,1902.07
2023-02-07T07:01:44.608Z,1916.35
2023-02-07T07:04:53.363Z,1754.01
2023-02-07T07:08:01.994Z,1646.12
2023-02-07T07:11:08.415Z,1664.65
2023-02-07T07:14:16.179Z,1695.25
2023-02-07T07:17:22.191Z,1805.85
2023-02-07T07:20:38.764Z,1953.11
2023-02-07T07:23:44.908Z,1850.02
2023-02-07T07:26:54.481Z,1874.11
2023-02-07T07:30:00.562Z,1821.93
2023-02-07T07:33:10.742Z,1612.68
2023-02-07T07:36:19.404Z,1711.73
2023-02-07T07:39:26.640Z,1677.75
2023-02-07T07:42:32.659Z,1686.36
2023-02-07T07:45:59.796Z,1672.13
2023-02-07T07:49:05.820Z,1651.36
2023-02-07T07:52:15.246Z,1529.33
2023-02-07T07:55:21.595Z,1375.50
2023-02-07T07:58:30.809Z,1166.42
2023-02-07T08:01:36.933Z,1208.62
2023-02-07T08:04:43.747Z,1256.46
2023-02-07T08:07:52.407Z,1306.16
2023-02-07T08:11:05.478Z,1594.65
2023-02-07T08:14:11.422Z,1459.43
2023-02-07T08:17:23.270Z,1814.76
2023-02-07T08:20:36.158Z,1926.20
2023-02-07T08:23:45.954Z,2044.25
2023-02-07T08:26:51.980Z,2202.45
2023-02-07T08:29:58.911Z,2153.19
2023-02-07T08:33:05.031Z,2022.34
2023-02-07T08:36:12.281Z,1939.40
2023-02-07T08:39:27.085Z,1883.25
2023-02-07T08:42:36.613Z,1881.32
2023-02-07T08:45:42.794Z,1921.97
2023-02-07T08:48:50.094Z,1936.84
2023-02-07T08:51:56.807Z,1925.53
2023-02-07T08:55:08.294Z,1935.06
2023-02-07T08:58:14.400Z,2024.47
2023-02-07T09:01:23.669Z,2084.04
2023-02-07T09:04:29.926Z,2094.86
2023-02-07T09:07:36.666Z,1939.62
2023-02-07T09:10:47.490Z,1640.77
2023-02-07T09:13:54.414Z,1575.20
2023-02-07T09:17:03.868Z,1540.59
2023-02-07T09:20:11.860Z,1509.59
2023-02-07T09:23:20.907Z,1564.60
2023-02-07T09:26:32.449Z,1617.55
2023-02-07T09:29:38.716Z,1487.38
2023-02-07T09:32:46.107Z,1187.83
2023-02-07T09:35:54.859Z,1149.24
2023-02-07T09:39:03.784Z,1206.49
2023-02-07T09:42:34.955Z,1100.75
2023-02-07T09:45:51.678Z,1153.87
2023-02-07T09:49:13.397Z,1228.15
2023-02-07T09:52:32.193Z,1276.77
2023-02-07T09:55:52.912Z,1394.45
2023-02-07T09:59:25.174Z,1413.97
2023-02-07T10:02:47.720Z,1309.98
2023-02-07T10:06:17.459Z,1265.22
2023-02-07T10:09:43.442Z,1285.75
2023-02-07T10:13:41.708Z,1289.83
2023-02-07T10:17:31.609Z,1210.82
2023-02-07T10:20:49.254Z,1198.31
2023-02-07T10:24:27.729Z,1281.54
2023-02-07T10:27:48.892Z,1122.87
2023-02-07T10:31:05.356Z,1104.81
2023-02-07T10:34:24.622Z,964.65
2023-02-07T10:37:40.476Z,1079.63
2023-02-07T10:41:03.484Z,1131.46
2023-02-07T10:44:16.717Z,1193.46
2023-02-07T10:47:26.402Z,1104.46
2023-02-07T10:50:35.354Z,1146.80
2023-02-07T10:54:04.691Z,1140.08
2023-02-07T10:57:23.734Z,1328.07
2023-02-07T11:00:38.517Z,1118.91
2023-02-07T11:03:44.818Z,1043.06
2023-02-07T11:07:04.596Z,1036.48
2023-02-07T11:10:21.590Z,1169.03
2023-02-07T11:13:32.799Z,1079.18
2023-02-07T11:16:39.331Z,1095.37
2023-02-07T11:19:49.177Z,1135.17
2023-02-07T11:23:00.179Z,1164.09
2023-02-07T11:26:08.740Z,1252.73
2023-02-07T11:29:22.267Z,1231.76
2023-02-07T11:32:31.740Z,1303.06
2023-02-07T11:35:40.099Z,1294.18
2023-02-07T11:38:53.974Z,1281.87
2023-02-07T11:42:04.771Z,1306.87
2023-02-07T11:45:18.572Z,1309.97
2023-02-07T11:48:31.574Z,1463.18
2023-02-07T11:51:40.099Z,2099.21
2023-02-07T11:54:57.831Z,1500.04
2023-02-07T11:58:17.996Z,1528.81
2023-02-07T12:01:32.809Z,1376.55
2023-02-07T12:04:42.471Z,1477.64
2023-02-07T12:07:55.385Z,1427.26
2023-02-07T12:11:15.554Z,1476.20
2023-02-07T12:14:35.975Z,1457.10
2023-02-07T12:17:59.755Z,1498.30
2023-02-07T12:21:21.145Z,1640.14
2023-02-07T12:24:37.118Z,1518.95
2023-02-07T12:27:53.397Z,1478.91
2023-02-07T12:31:17.963Z,1488.08
2023-02-07T12:34:36.909Z,1357.94
2023-02-07T12:37:55.673Z,1441.52
2023-02-07T12:41:15.682Z,1508.72
2023-02-07T12:44:37.690Z,1356.15
2023-02-07T12:48:07.029Z,1252.73
2023-02-07T12:51:33.605Z,1344.42
2023-02-07T12:54:58.500Z,1370.20
2023-02-07T12:58:31.887Z,1222.84
2023-02-07T13:01:52.820Z,1154.79
2023-02-07T13:05:46.905Z,1146.84
2023-02-07T13:09:10.914Z,1128.21
2023-02-07T13:12:28.134Z,1021.99
2023-02-07T13:15:50.173Z,965.54
2023-02-07T13:19:14.714Z,919.25
2023-02-07T13:22:40.093Z,965.99
2023-02-07T13:25:53.436Z,963.67
2023-02-07T13:29:04.369Z,841.73
2023-02-07T13:32:21.829Z,847.45
2023-02-07T13:35:38.349Z,740.18
2023-02-07T13:39:11.509Z,727.88
2023-02-07T13:42:36.404Z,668.36
2023-02-07T13:45:59.266Z,712.02
2023-02-07T13:49:22.523Z,711.65
2023-02-07T13:52:46.100Z,657.72
2023-02-07T13:55:53.810Z,673.33
2023-02-07T13:59:12.976Z,713.62
2023-02-07T14:02:24.775Z,751.64
2023-02-07T14:05:37.572Z,763.98
2023-02-07T14:08:48.221Z,704.79
2023-02-07T14:12:04.793Z,768.84
2023-02-07T14:16:02.050Z,714.51
2023-02-07T14:19:14.243Z,993.50
2023-02-07T14:22:24.875Z,796.66
2023-02-07T14:25:46.949Z,665.26
2023-02-07T14:28:52.961Z,687.95
2023-02-07T14:32:04.119Z,680.28
2023-02-07T14:35:40.831Z,622.58
2023-02-07T14:39:07.132Z,598.50
2023-02-07T14:42:24.941Z,552.48
2023-02-07T14:45:36.340Z,588.32
2023-02-07T14:48:54.291Z,622.23
2023-02-07T14:52:10.682Z,676.73
2023-02-07T14:55:27.575Z,628.59
2023-02-07T14:58:45.663Z,628.53
2023-02-07T15:01:51.681Z,603.70
2023-02-07T15:04:58.588Z,558.07
2023-02-07T15:08:22.091Z,489.55
2023-02-07T15:11:30.649Z,503.83
2023-02-07T15:14:39.713Z,515.22
2023-02-07T15:17:47.829Z,545.43
2023-02-07T15:20:59.490Z,524.61
2023-02-07T15:24:19.822Z,523.19
2023-02-07T15:27:28.831Z,533.84
2023-02-07T15:30:37.381Z,609.37
2023-02-07T15:33:53.777Z,626.68
2023-02-07T15:37:03.989Z,610.89
2023-02-07T15:40:20.486Z,602.43
2023-02-07T15:43:35.498Z,596.30
2023-02-07T15:46:54.489Z,572.68
2023-02-07T15:50:04.153Z,546.70
2023-02-07T15:53:11.960Z,524.70
2023-02-07T15:56:22.901Z,527.47
2023-02-07T15:59:34.670Z,542.72
2023-02-07T16:02:51.603Z,563.87
2023-02-07T16:06:10.285Z,590.97
2023-02-07T16:09:40.555Z,592.63
2023-02-07T16:12:53.356Z,588.83
2023-02-07T16:16:03.515Z,583.23
2023-02-07T16:19:20.457Z,658.62
2023-02-07T16:22:34.725Z,818.33
2023-02-07T16:25:41.228Z,885.14
2023-02-07T16:28:51.724Z,913.18
2023-02-07T16:31:59.315Z,952.28
2023-02-07T16:35:06.161Z,990.83
2023-02-07T16:38:12.155Z,858.36
2023-02-07T16:41:32.613Z,840.71
2023-02-07T16:44:41.258Z,848.39
2023-02-07T16:47:49.679Z,882.89
2023-02-07T16:50:55.708Z,892.29
2023-02-07T16:54:02.560Z,896.83
2023-02-07T16:57:08.927Z,942.73
2023-02-07T17:00:24.122Z,951.67
2023-02-07T17:03:30.192Z,931.02
2023-02-07T17:06:37.187Z,904.40
2023-02-07T17:09:43.312Z,847.12
2023-02-07T17:12:50.738Z,725.03
2023-02-07T17:15:59.776Z,769.82
2023-02-07T17:19:14.393Z,740.72
2023-02-07T17:22:20.397Z,960.83
2023-02-07T17:25:30.931Z,846.95
2023-02-07T17:28:37.578Z,805.74
2023-02-07T17:31:49.482Z,769.77
2023-02-07T17:34:55.741Z,734.11
2023-02-07T17:38:03.086Z,680.80
2023-02-07T17:41:10.026Z,653.23
2023-02-07T17:44:21.595Z,633.21
2023-02-07T17:47:30.126Z,636.92
2023-02-07T17:50:41.569Z,632.14
2023-02-07T17:53:47.657Z,630.12
2023-02-07T17:56:55.687Z,636.55
2023-02-07T18:00:01.849Z,646.53
2023-02-07T18:03:21.994Z,649.58
2023-02-07T18:06:31.398Z,666.26
2023-02-07T18:09:38.290Z,674.55
2023-02-07T18:12:44.406Z,686.05
2023-02-07T18:15:51.638Z,703.46
2023-02-07T18:19:01.017Z,706.65
2023-02-07T18:22:08.785Z,755.25
2023-02-07T18:25:15.555Z,839.33
2023-02-07T18:28:22.582Z,844.58
2023-02-07T18:31:28.876Z,796.51
2023-02-07T18:34:38.703Z,824.61
2023-02-07T18:37:45.177Z,898.29
2023-02-07T18:40:52.029Z,1047.30
2023-02-07T18:43:58.014Z,802.21
2023-02-07T18:47:04.886Z,677.49
2023-02-07T18:50:15.923Z,668.94
2023-02-07T18:53:23.202Z,680.57
2023-02-07T18:56:30.148Z,683.66
2023-02-07T18:59:37.739Z,684.90
2023-02-07T19:02:43.902Z,694.61
2023-02-07T19:05:53.263Z,1106.58
2023-02-07T19:09:00.411Z,844.45
2023-02-07T19:12:09.869Z,931.45
2023-02-07T19:15:16.911Z,1036.98
2023-02-07T19:18:24.116Z,765.33
2023-02-07T19:21:33.272Z,732.13
2023-02-07T19:24:42.318Z,727.57
2023-02-07T19:27:48.465Z,718.40
2023-02-07T19:30:55.329Z,712.10
2023-02-07T19:34:03.187Z,715.10
2023-02-07T19:37:12.701Z,704.33
2023-02-07T19:40:18.938Z,724.11
2023-02-07T19:43:26.321Z,744.14
2023-02-07T19:46:33.005Z,762.02
2023-02-07T19:49:40.400Z,773.56
2023-02-07T19:52:49.081Z,773.02
2023-02-07T19:55:56.116Z,799.42
2023-02-07T19:59:04.345Z,816.98
2023-02-07T20:02:11.308Z,838.67
2023-02-07T20:05:17.424Z,815.85
2023-02-07T20:08:27.035Z,787.71
2023-02-07T20:11:34.070Z,771.25
2023-02-07T20:14:41.243Z,775.97
2023-02-07T20:17:51.181Z,798.81
2023-02-07T20:21:06.224Z,795.12
2023-02-07T20:24:21.858Z,776.23
2023-02-07T20:27:30.441Z,734.18
2023-02-07T20:30:38.326Z,739.27
2023-02-07T20:33:50.605Z,671.28
2023-02-07T20:36:59.000Z,662.86
2023-02-07T20:40:09.579Z,678.64
2023-02-07T20:43:15.709Z,672.46
2023-02-07T20:46:22.703Z,1039.39
2023-02-07T20:49:37.215Z,720.94
2023-02-07T20:52:43.977Z,672.01
2023-02-07T20:55:52.617Z,680.62
2023-02-07T20:59:00.893Z,646.31
2023-02-07T21:02:09.915Z,638.60
2023-02-07T21:05:17.563Z,648.35
2023-02-07T21:08:25.248Z,656.20
2023-02-07T21:11:42.505Z,675.61
2023-02-07T21:14:52.607Z,709.93
2023-02-07T21:17:59.426Z,703.20
2023-02-07T21:21:14.178Z,673.90
2023-02-07T21:24:22.070Z,678.31
2023-02-07T21:27:30.723Z,723.42
2023-02-07T21:30:41.849Z,781.84
2023-02-07T21:33:49.868Z,752.48
2023-02-07T21:37:01.933Z,702.14
2023-02-07T21:40:09.917Z,676.31
2023-02-07T21:43:22.012Z,672.28
2023-02-07T21:46:33.086Z,672.73
2023-02-07T21:49:39.984Z,667.24
2023-02-07T21:52:46.006Z,655.30
2023-02-07T21:55:52.890Z,672.29
2023-02-07T21:59:05.229Z,695.01
2023-02-07T22:02:14.882Z,693.45
2023-02-07T22:05:21.255Z,679.52
2023-02-07T22:08:28.075Z,675.00
2023-02-07T22:11:37.820Z,675.96
2023-02-07T22:14:47.316Z,726.38
2023-02-07T22:17:53.240Z,735.33
2023-02-07T22:21:07.463Z,747.09
2023-02-07T22:24:18.490Z,704.59
2023-02-07T22:27:25.302Z,678.61
2023-02-07T22:30:33.899Z,626.56
2023-02-07T22:33:40.856Z,586.74
2023-02-07T22:36:48.923Z,577.81
2023-02-07T22:39:55.626Z,585.28
2023-02-07T22:43:01.507Z,617.37
2023-02-07T22:46:16.060Z,626.53
2023-02-07T22:49:22.213Z,609.30
2023-02-07T22:52:29.176Z,628.68
2023-02-07T22:55:36.621Z,620.25
2023-02-07T22:58:44.655Z,623.79
2023-02-07T23:01:53.405Z,630.10
2023-02-07T23:05:00.244Z,668.51
2023-02-07T23:08:06.319Z,666.40
2023-02-07T23:11:21.912Z,727.49
2023-02-07T23:14:27.856Z,678.49
2023-02-07T23:17:37.646Z,626.91
2023-02-07T23:20:47.576Z,634.17
2023-02-07T23:23:54.753Z,628.51
2023-02-07T23:27:00.622Z,641.53
2023-02-07T23:30:08.408Z,654.75
2023-02-07T23:33:16.932Z,674.64
2023-02-07T23:36:24.817Z,671.66
2023-02-07T23:39:30.829Z,646.11
2023-02-07T23:42:38.053Z,660.99
2023-02-07T23:45:44.143Z,690.70
2023-02-07T23:48:53.580Z,678.18
2023-02-07T23:51:59.483Z,680.93
2023-02-07T23:55:23.124Z,743.52
2023-02-07T23:58:31.233Z,709.38
